sensor_id;sensor_type;location;lat;lon;timestamp;P1;durP1;ratioP1;P2;durP2;ratioP2
61471;SDS011;47337;54.068;12.114;2023-03-14T00:01:24;3.75;;;2.25;;
61471;SDS011;47337;54.068;12.114;2023-03-14T00:03:49;3.28;;;2.38;;
61471;SDS011;47337;54.068;12.114;2023-03-14T00:06:16;4.57;;;2.40;;
61471;SDS011;47337;54.068;12.114;2023-03-14T00:08:43;5.22;;;2.33;;
61471;SDS011;47337;54.068;12.114;2023-03-14T00:11:16;4.72;;;2.92;;
61471;SDS011;47337;54.068;12.114;2023-03-14T00:13:46;5.68;;;2.67;;
61471;SDS011;47337;54.068;12.114;2023-03-14T00:16:13;7.15;;;2.45;;
61471;SDS011;47337;54.068;12.114;2023-03-14T00:18:39;7.15;;;2.75;;
61471;SDS011;47337;54.068;12.114;2023-03-14T00:21:08;4.80;;;2.38;;
61471;SDS011;47337;54.068;12.114;2023-03-14T00:23:35;3.60;;;2.40;;
61471;SDS011;47337;54.068;12.114;2023-03-14T00:26:08;4.97;;;2.30;;
61471;SDS011;47337;54.068;12.114;2023-03-14T00:28:40;4.85;;;2.90;;
61471;SDS011;47337;54.068;12.114;2023-03-14T00:31:11;4.00;;;2.40;;
61471;SDS011;47337;54.068;12.114;2023-03-14T00:33:38;6.80;;;2.17;;
61471;SDS011;47337;54.068;12.114;2023-03-14T00:36:05;4.22;;;2.30;;
61471;SDS011;47337;54.068;12.114;2023-03-14T00:38:33;4.60;;;2.40;;
61471;SDS011;47337;54.068;12.114;2023-03-14T00:40:59;3.78;;;2.25;;
61471;SDS011;47337;54.068;12.114;2023-03-14T00:43:29;6.15;;;2.30;;
61471;SDS011;47337;54.068;12.114;2023-03-14T00:45:54;4.28;;;2.30;;
61471;SDS011;47337;54.068;12.114;2023-03-14T00:48:20;6.28;;;2.67;;
61471;SDS011;47337;54.068;12.114;2023-03-14T00:50:46;3.78;;;2.28;;
61471;SDS011;47337;54.068;12.114;2023-03-14T00:53:14;3.55;;;2.35;;
61471;SDS011;47337;54.068;12.114;2023-03-14T00:55:43;3.67;;;2.40;;
61471;SDS011;47337;54.068;12.114;2023-03-14T00:58:13;5.13;;;2.30;;
61471;SDS011;47337;54.068;12.114;2023-03-14T01:00:40;3.17;;;1.75;;
61471;SDS011;47337;54.068;12.114;2023-03-14T01:03:09;5.68;;;2.45;;
61471;SDS011;47337;54.068;12.114;2023-03-14T01:05:38;3.95;;;1.85;;
61471;SDS011;47337;54.068;12.114;2023-03-14T01:08:06;4.82;;;2.33;;
61471;SDS011;47337;54.068;12.114;2023-03-14T01:10:34;6.15;;;2.65;;
61471;SDS011;47337;54.068;12.114;2023-03-14T01:13:04;3.83;;;1.90;;
61471;SDS011;47337;54.068;12.114;2023-03-14T01:15:29;3.70;;;1.83;;
61471;SDS011;47337;54.068;12.114;2023-03-14T01:17:57;3.13;;;1.95;;
61471;SDS011;47337;54.068;12.114;2023-03-14T01:20:25;2.38;;;1.88;;
61471;SDS011;47337;54.068;12.114;2023-03-14T01:22:50;6.50;;;1.80;;
61471;SDS011;47337;54.068;12.114;2023-03-14T01:25:16;3.58;;;2.00;;
61471;SDS011;47337;54.068;12.114;2023-03-14T01:27:42;6.55;;;2.22;;
61471;SDS011;47337;54.068;12.114;2023-03-14T01:30:08;4.70;;;1.60;;
61471;SDS011;47337;54.068;12.114;2023-03-14T01:32:35;3.75;;;1.98;;
61471;SDS011;47337;54.068;12.114;2023-03-14T01:35:01;3.88;;;1.48;;
61471;SDS011;47337;54.068;12.114;2023-03-14T01:37:27;3.00;;;1.90;;
61471;SDS011;47337;54.068;12.114;2023-03-14T01:39:53;4.93;;;1.90;;
61471;SDS011;47337;54.068;12.114;2023-03-14T01:42:20;4.15;;;2.20;;
61471;SDS011;47337;54.068;12.114;2023-03-14T01:47:17;3.08;;;1.90;;
61471;SDS011;47337;54.068;12.114;2023-03-14T01:49:43;8.25;;;2.42;;
61471;SDS011;47337;54.068;12.114;2023-03-14T01:52:19;3.03;;;2.15;;
61471;SDS011;47337;54.068;12.114;2023-03-14T01:54:53;7.03;;;2.53;;
61471;SDS011;47337;54.068;12.114;2023-03-14T01:57:27;8.93;;;2.28;;
61471;SDS011;47337;54.068;12.114;2023-03-14T02:00:07;2.65;;;2.00;;
61471;SDS011;47337;54.068;12.114;2023-03-14T02:02:45;4.45;;;2.22;;
61471;SDS011;47337;54.068;12.114;2023-03-14T02:05:14;4.35;;;2.03;;
61471;SDS011;47337;54.068;12.114;2023-03-14T02:10:19;4.90;;;2.45;;
61471;SDS011;47337;54.068;12.114;2023-03-14T02:12:47;5.60;;;2.30;;
61471;SDS011;47337;54.068;12.114;2023-03-14T02:15:13;6.15;;;2.83;;
61471;SDS011;47337;54.068;12.114;2023-03-14T02:17:41;5.05;;;2.20;;
61471;SDS011;47337;54.068;12.114;2023-03-14T02:23:03;5.25;;;2.53;;
61471;SDS011;47337;54.068;12.114;2023-03-14T02:27:54;3.22;;;2.08;;
61471;SDS011;47337;54.068;12.114;2023-03-14T02:30:23;4.68;;;2.30;;
61471;SDS011;47337;54.068;12.114;2023-03-14T02:32:57;3.05;;;2.15;;
61471;SDS011;47337;54.068;12.114;2023-03-14T02:35:27;4.15;;;2.20;;
61471;SDS011;47337;54.068;12.114;2023-03-14T02:40:31;4.13;;;2.00;;
61471;SDS011;47337;54.068;12.114;2023-03-14T02:42:56;4.13;;;2.28;;
61471;SDS011;47337;54.068;12.114;2023-03-14T02:47:49;8.25;;;2.47;;
61471;SDS011;47337;54.068;12.114;2023-03-14T02:50:22;5.28;;;2.53;;
61471;SDS011;47337;54.068;12.114;2023-03-14T02:52:51;5.00;;;2.25;;
61471;SDS011;47337;54.068;12.114;2023-03-14T02:55:22;4.45;;;2.42;;
61471;SDS011;47337;54.068;12.114;2023-03-14T02:57:48;3.17;;;2.33;;
61471;SDS011;47337;54.068;12.114;2023-03-14T03:00:15;4.68;;;2.63;;
61471;SDS011;47337;54.068;12.114;2023-03-14T03:02:40;8.02;;;2.30;;
61471;SDS011;47337;54.068;12.114;2023-03-14T03:05:08;4.15;;;2.67;;
61471;SDS011;47337;54.068;12.114;2023-03-14T03:07:36;6.43;;;2.20;;
61471;SDS011;47337;54.068;12.114;2023-03-14T03:10:02;11.73;;;2.70;;
61471;SDS011;47337;54.068;12.114;2023-03-14T03:12:32;3.35;;;1.88;;
61471;SDS011;47337;54.068;12.114;2023-03-14T03:14:57;6.30;;;2.33;;
61471;SDS011;47337;54.068;12.114;2023-03-14T03:17:23;4.07;;;1.83;;
61471;SDS011;47337;54.068;12.114;2023-03-14T03:19:48;3.05;;;1.92;;
61471;SDS011;47337;54.068;12.114;2023-03-14T03:22:14;5.15;;;1.90;;
61471;SDS011;47337;54.068;12.114;2023-03-14T03:24:39;4.28;;;2.00;;
61471;SDS011;47337;54.068;12.114;2023-03-14T03:27:04;6.18;;;2.80;;
61471;SDS011;47337;54.068;12.114;2023-03-14T03:29:33;5.68;;;2.25;;
61471;SDS011;47337;54.068;12.114;2023-03-14T03:31:58;6.35;;;2.25;;
61471;SDS011;47337;54.068;12.114;2023-03-14T03:34:28;5.57;;;2.22;;
61471;SDS011;47337;54.068;12.114;2023-03-14T03:36:55;5.22;;;2.03;;
61471;SDS011;47337;54.068;12.114;2023-03-14T03:39:21;4.38;;;2.13;;
61471;SDS011;47337;54.068;12.114;2023-03-14T03:41:49;7.93;;;2.45;;
61471;SDS011;47337;54.068;12.114;2023-03-14T03:44:17;4.97;;;2.65;;
61471;SDS011;47337;54.068;12.114;2023-03-14T03:46:43;7.07;;;2.28;;
61471;SDS011;47337;54.068;12.114;2023-03-14T03:49:10;4.00;;;2.05;;
61471;SDS011;47337;54.068;12.114;2023-03-14T03:51:36;3.70;;;2.05;;
61471;SDS011;47337;54.068;12.114;2023-03-14T03:54:01;6.28;;;1.85;;
61471;SDS011;47337;54.068;12.114;2023-03-14T03:56:29;8.85;;;2.40;;
61471;SDS011;47337;54.068;12.114;2023-03-14T03:58:56;5.93;;;2.13;;
61471;SDS011;47337;54.068;12.114;2023-03-14T04:01:22;8.35;;;2.63;;
61471;SDS011;47337;54.068;12.114;2023-03-14T04:03:47;5.80;;;2.28;;
61471;SDS011;47337;54.068;12.114;2023-03-14T04:06:15;8.43;;;2.38;;
61471;SDS011;47337;54.068;12.114;2023-03-14T04:08:45;5.97;;;1.67;;
61471;SDS011;47337;54.068;12.114;2023-03-14T04:11:13;6.43;;;2.55;;
61471;SDS011;47337;54.068;12.114;2023-03-14T04:13:39;6.40;;;2.70;;
61471;SDS011;47337;54.068;12.114;2023-03-14T04:16:09;4.82;;;2.08;;
61471;SDS011;47337;54.068;12.114;2023-03-14T04:18:39;4.93;;;2.30;;
61471;SDS011;47337;54.068;12.114;2023-03-14T04:21:04;5.55;;;2.42;;
61471;SDS011;47337;54.068;12.114;2023-03-14T04:23:30;12.82;;;2.80;;
61471;SDS011;47337;54.068;12.114;2023-03-14T04:25:56;5.32;;;2.53;;
61471;SDS011;47337;54.068;12.114;2023-03-14T04:28:21;3.25;;;1.90;;
61471;SDS011;47337;54.068;12.114;2023-03-14T04:30:49;5.32;;;2.15;;
61471;SDS011;47337;54.068;12.114;2023-03-14T04:33:14;7.07;;;2.25;;
61471;SDS011;47337;54.068;12.114;2023-03-14T04:35:43;8.95;;;2.30;;
61471;SDS011;47337;54.068;12.114;2023-03-14T04:38:11;7.40;;;2.75;;
61471;SDS011;47337;54.068;12.114;2023-03-14T04:40:40;6.28;;;2.17;;
61471;SDS011;47337;54.068;12.114;2023-03-14T04:43:11;8.80;;;2.92;;
61471;SDS011;47337;54.068;12.114;2023-03-14T04:45:37;6.35;;;2.30;;
61471;SDS011;47337;54.068;12.114;2023-03-14T04:48:06;5.28;;;2.88;;
61471;SDS011;47337;54.068;12.114;2023-03-14T04:50:31;7.65;;;2.47;;
61471;SDS011;47337;54.068;12.114;2023-03-14T04:52:57;5.22;;;2.40;;
61471;SDS011;47337;54.068;12.114;2023-03-14T04:55:25;6.47;;;2.13;;
61471;SDS011;47337;54.068;12.114;2023-03-14T04:57:50;6.28;;;2.22;;
61471;SDS011;47337;54.068;12.114;2023-03-14T05:00:15;8.38;;;2.42;;
61471;SDS011;47337;54.068;12.114;2023-03-14T05:02:44;4.88;;;2.13;;
61471;SDS011;47337;54.068;12.114;2023-03-14T05:05:10;3.63;;;1.88;;
61471;SDS011;47337;54.068;12.114;2023-03-14T05:07:38;5.38;;;2.13;;
61471;SDS011;47337;54.068;12.114;2023-03-14T05:10:03;6.40;;;2.03;;
61471;SDS011;47337;54.068;12.114;2023-03-14T05:12:29;6.40;;;2.70;;
61471;SDS011;47337;54.068;12.114;2023-03-14T05:14:54;3.78;;;2.03;;
61471;SDS011;47337;54.068;12.114;2023-03-14T05:17:20;6.57;;;2.70;;
61471;SDS011;47337;54.068;12.114;2023-03-14T05:19:45;2.88;;;2.15;;
61471;SDS011;47337;54.068;12.114;2023-03-14T05:22:11;4.63;;;1.80;;
61471;SDS011;47337;54.068;12.114;2023-03-14T05:24:36;3.45;;;1.80;;
61471;SDS011;47337;54.068;12.114;2023-03-14T05:27:02;4.53;;;2.15;;
61471;SDS011;47337;54.068;12.114;2023-03-14T05:29:29;6.90;;;2.03;;
61471;SDS011;47337;54.068;12.114;2023-03-14T05:31:56;3.17;;;2.28;;
61471;SDS011;47337;54.068;12.114;2023-03-14T05:34:22;5.85;;;1.80;;
61471;SDS011;47337;54.068;12.114;2023-03-14T05:36:47;3.30;;;2.05;;
61471;SDS011;47337;54.068;12.114;2023-03-14T05:39:13;3.53;;;2.17;;
61471;SDS011;47337;54.068;12.114;2023-03-14T05:41:38;14.68;;;2.50;;
61471;SDS011;47337;54.068;12.114;2023-03-14T05:44:03;4.05;;;2.63;;
61471;SDS011;47337;54.068;12.114;2023-03-14T05:46:29;5.55;;;2.25;;
61471;SDS011;47337;54.068;12.114;2023-03-14T05:48:58;4.68;;;1.92;;
61471;SDS011;47337;54.068;12.114;2023-03-14T05:51:23;5.10;;;3.00;;
61471;SDS011;47337;54.068;12.114;2023-03-14T05:53:49;4.43;;;1.90;;
61471;SDS011;47337;54.068;12.114;2023-03-14T05:56:14;3.20;;;2.22;;
61471;SDS011;47337;54.068;12.114;2023-03-14T05:58:42;5.25;;;2.22;;
61471;SDS011;47337;54.068;12.114;2023-03-14T06:01:07;3.95;;;2.33;;
61471;SDS011;47337;54.068;12.114;2023-03-14T06:03:33;5.55;;;2.75;;
61471;SDS011;47337;54.068;12.114;2023-03-14T06:05:59;5.63;;;2.30;;
61471;SDS011;47337;54.068;12.114;2023-03-14T06:08:27;3.53;;;2.10;;
61471;SDS011;47337;54.068;12.114;2023-03-14T06:10:53;5.00;;;2.30;;
61471;SDS011;47337;54.068;12.114;2023-03-14T06:13:19;8.35;;;2.00;;
61471;SDS011;47337;54.068;12.114;2023-03-14T06:15:47;4.63;;;1.88;;
61471;SDS011;47337;54.068;12.114;2023-03-14T06:18:12;7.35;;;1.70;;
61471;SDS011;47337;54.068;12.114;2023-03-14T06:20:39;7.53;;;2.10;;
61471;SDS011;47337;54.068;12.114;2023-03-14T06:23:07;6.90;;;2.22;;
61471;SDS011;47337;54.068;12.114;2023-03-14T06:25:36;4.75;;;1.67;;
61471;SDS011;47337;54.068;12.114;2023-03-14T06:28:04;3.25;;;1.50;;
61471;SDS011;47337;54.068;12.114;2023-03-14T06:30:29;4.57;;;1.85;;
61471;SDS011;47337;54.068;12.114;2023-03-14T06:32:55;3.30;;;1.90;;
61471;SDS011;47337;54.068;12.114;2023-03-14T06:35:20;3.92;;;1.73;;
61471;SDS011;47337;54.068;12.114;2023-03-14T06:37:47;6.72;;;2.13;;
61471;SDS011;47337;54.068;12.114;2023-03-14T06:40:14;3.85;;;1.67;;
61471;SDS011;47337;54.068;12.114;2023-03-14T06:42:45;3.67;;;1.60;;
61471;SDS011;47337;54.068;12.114;2023-03-14T06:45:11;5.53;;;1.73;;
61471;SDS011;47337;54.068;12.114;2023-03-14T06:47:37;4.45;;;1.90;;
61471;SDS011;47337;54.068;12.114;2023-03-14T06:50:03;4.85;;;1.90;;
61471;SDS011;47337;54.068;12.114;2023-03-14T06:52:32;5.93;;;2.10;;
61471;SDS011;47337;54.068;12.114;2023-03-14T06:54:57;5.65;;;1.60;;
61471;SDS011;47337;54.068;12.114;2023-03-14T06:57:23;2.33;;;1.30;;
61471;SDS011;47337;54.068;12.114;2023-03-14T06:59:51;4.20;;;1.40;;
61471;SDS011;47337;54.068;12.114;2023-03-14T07:02:16;5.07;;;1.73;;
61471;SDS011;47337;54.068;12.114;2023-03-14T07:04:41;3.28;;;1.50;;
61471;SDS011;47337;54.068;12.114;2023-03-14T07:07:09;4.90;;;1.42;;
61471;SDS011;47337;54.068;12.114;2023-03-14T07:09:35;5.63;;;2.22;;
61471;SDS011;47337;54.068;12.114;2023-03-14T07:12:01;1.65;;;1.40;;
61471;SDS011;47337;54.068;12.114;2023-03-14T07:14:29;2.75;;;1.52;;
61471;SDS011;47337;54.068;12.114;2023-03-14T07:16:55;3.88;;;1.58;;
61471;SDS011;47337;54.068;12.114;2023-03-14T07:19:25;1.80;;;1.20;;
61471;SDS011;47337;54.068;12.114;2023-03-14T07:21:52;6.10;;;1.90;;
61471;SDS011;47337;54.068;12.114;2023-03-14T07:24:18;2.60;;;1.25;;
61471;SDS011;47337;54.068;12.114;2023-03-14T07:26:43;4.75;;;1.85;;
61471;SDS011;47337;54.068;12.114;2023-03-14T07:29:11;6.30;;;1.25;;
61471;SDS011;47337;54.068;12.114;2023-03-14T07:31:37;1.30;;;1.05;;
61471;SDS011;47337;54.068;12.114;2023-03-14T07:34:02;1.92;;;1.20;;
61471;SDS011;47337;54.068;12.114;2023-03-14T07:36:28;4.53;;;1.20;;
61471;SDS011;47337;54.068;12.114;2023-03-14T07:38:53;3.78;;;1.25;;
61471;SDS011;47337;54.068;12.114;2023-03-14T07:41:18;2.33;;;0.98;;
61471;SDS011;47337;54.068;12.114;2023-03-14T07:43:45;4.88;;;1.52;;
61471;SDS011;47337;54.068;12.114;2023-03-14T07:46:11;1.95;;;1.10;;
61471;SDS011;47337;54.068;12.114;2023-03-14T07:48:36;2.85;;;1.25;;
61471;SDS011;47337;54.068;12.114;2023-03-14T07:51:02;1.92;;;1.17;;
61471;SDS011;47337;54.068;12.114;2023-03-14T07:53:27;2.45;;;1.00;;
61471;SDS011;47337;54.068;12.114;2023-03-14T07:55:53;3.28;;;1.00;;
61471;SDS011;47337;54.068;12.114;2023-03-14T07:58:21;3.00;;;1.10;;
61471;SDS011;47337;54.068;12.114;2023-03-14T08:00:49;1.88;;;1.13;;
61471;SDS011;47337;54.068;12.114;2023-03-14T08:03:15;2.17;;;1.02;;
61471;SDS011;47337;54.068;12.114;2023-03-14T08:05:41;3.92;;;1.05;;
61471;SDS011;47337;54.068;12.114;2023-03-14T08:08:11;2.58;;;1.27;;
61471;SDS011;47337;54.068;12.114;2023-03-14T08:10:37;3.60;;;1.23;;
61471;SDS011;47337;54.068;12.114;2023-03-14T08:13:02;4.28;;;1.40;;
61471;SDS011;47337;54.068;12.114;2023-03-14T08:15:32;3.08;;;1.40;;
61471;SDS011;47337;54.068;12.114;2023-03-14T08:17:58;1.98;;;1.20;;
61471;SDS011;47337;54.068;12.114;2023-03-14T08:20:27;3.70;;;1.33;;
61471;SDS011;47337;54.068;12.114;2023-03-14T08:22:57;5.88;;;1.63;;
61471;SDS011;47337;54.068;12.114;2023-03-14T08:25:23;3.47;;;1.40;;
61471;SDS011;47337;54.068;12.114;2023-03-14T08:27:49;2.50;;;1.30;;
61471;SDS011;47337;54.068;12.114;2023-03-14T08:30:17;5.20;;;1.33;;
61471;SDS011;47337;54.068;12.114;2023-03-14T08:32:44;4.38;;;1.80;;
61471;SDS011;47337;54.068;12.114;2023-03-14T08:35:10;3.15;;;1.38;;
61471;SDS011;47337;54.068;12.114;2023-03-14T08:37:36;3.60;;;1.55;;
61471;SDS011;47337;54.068;12.114;2023-03-14T08:40:05;2.97;;;1.52;;
61471;SDS011;47337;54.068;12.114;2023-03-14T08:42:31;2.38;;;1.33;;
61471;SDS011;47337;54.068;12.114;2023-03-14T08:45:00;5.13;;;1.80;;
61471;SDS011;47337;54.068;12.114;2023-03-14T08:47:28;3.63;;;1.50;;
61471;SDS011;47337;54.068;12.114;2023-03-14T08:49:54;2.55;;;1.20;;
61471;SDS011;47337;54.068;12.114;2023-03-14T08:52:19;3.97;;;1.25;;
61471;SDS011;47337;54.068;12.114;2023-03-14T08:54:48;2.67;;;1.10;;
61471;SDS011;47337;54.068;12.114;2023-03-14T08:57:17;8.13;;;1.40;;
61471;SDS011;47337;54.068;12.114;2023-03-14T08:59:52;2.63;;;1.25;;
61471;SDS011;47337;54.068;12.114;2023-03-14T09:02:21;2.17;;;1.38;;
61471;SDS011;47337;54.068;12.114;2023-03-14T09:04:47;7.05;;;1.50;;
61471;SDS011;47337;54.068;12.114;2023-03-14T09:07:13;2.67;;;1.40;;
61471;SDS011;47337;54.068;12.114;2023-03-14T09:09:38;4.90;;;1.33;;
61471;SDS011;47337;54.068;12.114;2023-03-14T09:12:04;4.38;;;1.73;;
61471;SDS011;47337;54.068;12.114;2023-03-14T09:14:30;5.35;;;2.00;;
61471;SDS011;47337;54.068;12.114;2023-03-14T09:16:56;5.22;;;1.90;;
61471;SDS011;47337;54.068;12.114;2023-03-14T09:19:21;3.03;;;1.60;;
61471;SDS011;47337;54.068;12.114;2023-03-14T09:21:49;2.03;;;1.30;;
61471;SDS011;47337;54.068;12.114;2023-03-14T09:24:15;2.45;;;1.48;;
61471;SDS011;47337;54.068;12.114;2023-03-14T09:26:41;2.80;;;1.13;;
61471;SDS011;47337;54.068;12.114;2023-03-14T09:29:09;5.60;;;1.70;;
61471;SDS011;47337;54.068;12.114;2023-03-14T09:31:34;3.88;;;1.40;;
61471;SDS011;47337;54.068;12.114;2023-03-14T09:34:00;2.03;;;1.27;;
61471;SDS011;47337;54.068;12.114;2023-03-14T09:36:25;3.33;;;1.20;;
61471;SDS011;47337;54.068;12.114;2023-03-14T09:38:51;3.22;;;1.30;;
61471;SDS011;47337;54.068;12.114;2023-03-14T09:43:48;2.05;;;1.10;;
61471;SDS011;47337;54.068;12.114;2023-03-14T09:46:24;6.20;;;1.60;;
61471;SDS011;47337;54.068;12.114;2023-03-14T09:48:49;2.30;;;1.00;;
61471;SDS011;47337;54.068;12.114;2023-03-14T09:51:18;3.78;;;1.13;;
61471;SDS011;47337;54.068;12.114;2023-03-14T09:53:47;1.67;;;1.13;;
61471;SDS011;47337;54.068;12.114;2023-03-14T09:56:16;2.90;;;1.17;;
61471;SDS011;47337;54.068;12.114;2023-03-14T09:58:57;4.00;;;0.98;;
61471;SDS011;47337;54.068;12.114;2023-03-14T10:01:32;2.45;;;0.82;;
61471;SDS011;47337;54.068;12.114;2023-03-14T10:04:10;1.90;;;0.80;;
61471;SDS011;47337;54.068;12.114;2023-03-14T10:06:41;3.67;;;1.00;;
61471;SDS011;47337;54.068;12.114;2023-03-14T10:09:10;2.90;;;0.98;;
61471;SDS011;47337;54.068;12.114;2023-03-14T10:11:44;3.25;;;1.30;;
61471;SDS011;47337;54.068;12.114;2023-03-14T10:14:14;5.60;;;1.33;;
61471;SDS011;47337;54.068;12.114;2023-03-14T10:17:03;2.53;;;1.40;;
61471;SDS011;47337;54.068;12.114;2023-03-14T10:19:34;4.10;;;1.33;;
61471;SDS011;47337;54.068;12.114;2023-03-14T10:22:01;3.03;;;1.20;;
61471;SDS011;47337;54.068;12.114;2023-03-14T10:24:33;4.03;;;1.23;;
61471;SDS011;47337;54.068;12.114;2023-03-14T10:29:31;3.38;;;1.40;;
61471;SDS011;47337;54.068;12.114;2023-03-14T10:34:33;3.05;;;1.60;;
61471;SDS011;47337;54.068;12.114;2023-03-14T10:37:06;5.30;;;1.52;;
61471;SDS011;47337;54.068;12.114;2023-03-14T10:39:51;3.97;;;1.88;;
61471;SDS011;47337;54.068;12.114;2023-03-14T10:42:22;3.33;;;1.77;;
61471;SDS011;47337;54.068;12.114;2023-03-14T10:44:57;3.20;;;1.45;;
61471;SDS011;47337;54.068;12.114;2023-03-14T10:47:28;3.78;;;1.98;;
61471;SDS011;47337;54.068;12.114;2023-03-14T10:49:54;4.80;;;1.70;;
61471;SDS011;47337;54.068;12.114;2023-03-14T10:52:21;6.82;;;1.90;;
61471;SDS011;47337;54.068;12.114;2023-03-14T10:54:54;5.82;;;2.30;;
61471;SDS011;47337;54.068;12.114;2023-03-14T10:57:23;6.07;;;2.35;;
61471;SDS011;47337;54.068;12.114;2023-03-14T10:59:53;5.15;;;2.10;;
61471;SDS011;47337;54.068;12.114;2023-03-14T11:07:49;6.53;;;2.20;;
61471;SDS011;47337;54.068;12.114;2023-03-14T11:28:50;2.55;;;1.30;;
61471;SDS011;47337;54.068;12.114;2023-03-14T11:31:39;2.88;;;1.05;;
61471;SDS011;47337;54.068;12.114;2023-03-14T11:37:14;2.15;;;1.00;;
61471;SDS011;47337;54.068;12.114;2023-03-14T11:39:47;5.07;;;1.77;;
61471;SDS011;47337;54.068;12.114;2023-03-14T11:42:34;3.15;;;1.17;;
61471;SDS011;47337;54.068;12.114;2023-03-14T11:45:00;4.60;;;1.35;;
61471;SDS011;47337;54.068;12.114;2023-03-14T11:50:15;8.07;;;1.08;;
61471;SDS011;47337;54.068;12.114;2023-03-14T11:53:29;3.85;;;1.00;;
61471;SDS011;47337;54.068;12.114;2023-03-14T11:56:11;5.03;;;1.38;;
61471;SDS011;47337;54.068;12.114;2023-03-14T11:58:56;5.38;;;1.20;;
61471;SDS011;47337;54.068;12.114;2023-03-14T12:01:27;2.38;;;1.20;;
61471;SDS011;47337;54.068;12.114;2023-03-14T12:04:09;4.38;;;1.05;;
61471;SDS011;47337;54.068;12.114;2023-03-14T12:06:49;3.47;;;1.05;;
61471;SDS011;47337;54.068;12.114;2023-03-14T12:09:16;6.05;;;1.05;;
61471;SDS011;47337;54.068;12.114;2023-03-14T12:14:17;2.63;;;0.90;;
61471;SDS011;47337;54.068;12.114;2023-03-14T12:16:46;2.80;;;1.00;;
61471;SDS011;47337;54.068;12.114;2023-03-14T12:19:31;4.32;;;1.17;;
61471;SDS011;47337;54.068;12.114;2023-03-14T12:25:05;3.30;;;1.08;;
61471;SDS011;47337;54.068;12.114;2023-03-14T12:35:35;4.63;;;0.85;;
61471;SDS011;47337;54.068;12.114;2023-03-14T12:38:03;1.75;;;0.80;;
61471;SDS011;47337;54.068;12.114;2023-03-14T12:40:34;3.92;;;1.15;;
61471;SDS011;47337;54.068;12.114;2023-03-14T12:43:10;5.72;;;1.35;;
61471;SDS011;47337;54.068;12.114;2023-03-14T12:46:06;6.50;;;1.60;;
61471;SDS011;47337;54.068;12.114;2023-03-14T12:48:43;5.18;;;0.88;;
61471;SDS011;47337;54.068;12.114;2023-03-14T12:51:14;6.75;;;1.60;;
61471;SDS011;47337;54.068;12.114;2023-03-14T12:56:28;5.10;;;0.98;;
61471;SDS011;47337;54.068;12.114;2023-03-14T12:59:15;6.55;;;1.13;;
61471;SDS011;47337;54.068;12.114;2023-03-14T13:02:00;7.65;;;1.42;;
61471;SDS011;47337;54.068;12.114;2023-03-14T13:04:50;6.07;;;1.23;;
61471;SDS011;47337;54.068;12.114;2023-03-14T13:07:30;7.65;;;1.05;;
61471;SDS011;47337;54.068;12.114;2023-03-14T13:10:05;5.75;;;1.40;;
61471;SDS011;47337;54.068;12.114;2023-03-14T13:15:32;5.03;;;1.10;;
61471;SDS011;47337;54.068;12.114;2023-03-14T13:18:10;10.77;;;1.25;;
61471;SDS011;47337;54.068;12.114;2023-03-14T13:20:41;6.05;;;1.27;;
61471;SDS011;47337;54.068;12.114;2023-03-14T13:23:24;7.38;;;1.60;;
61471;SDS011;47337;54.068;12.114;2023-03-14T13:25:51;4.13;;;0.90;;
61471;SDS011;47337;54.068;12.114;2023-03-14T13:28:17;5.53;;;1.30;;
61471;SDS011;47337;54.068;12.114;2023-03-14T13:30:46;2.00;;;0.82;;
61471;SDS011;47337;54.068;12.114;2023-03-14T13:33:17;2.65;;;0.90;;
61471;SDS011;47337;54.068;12.114;2023-03-14T13:35:48;9.38;;;1.25;;
61471;SDS011;47337;54.068;12.114;2023-03-14T13:38:22;2.97;;;1.13;;
61471;SDS011;47337;54.068;12.114;2023-03-14T13:40:50;5.32;;;0.98;;
61471;SDS011;47337;54.068;12.114;2023-03-14T13:43:36;6.20;;;0.95;;
61471;SDS011;47337;54.068;12.114;2023-03-14T13:46:12;4.75;;;1.10;;
61471;SDS011;47337;54.068;12.114;2023-03-14T13:48:43;10.07;;;1.63;;
61471;SDS011;47337;54.068;12.114;2023-03-14T13:51:11;6.18;;;1.38;;
61471;SDS011;47337;54.068;12.114;2023-03-14T13:53:45;8.98;;;1.45;;
61471;SDS011;47337;54.068;12.114;2023-03-14T13:56:11;8.70;;;2.28;;
61471;SDS011;47337;54.068;12.114;2023-03-14T13:58:40;4.57;;;1.58;;
61471;SDS011;47337;54.068;12.114;2023-03-14T14:03:56;10.15;;;1.63;;
61471;SDS011;47337;54.068;12.114;2023-03-14T14:06:31;8.15;;;1.08;;
61471;SDS011;47337;54.068;12.114;2023-03-14T14:09:03;6.07;;;1.30;;
61471;SDS011;47337;54.068;12.114;2023-03-14T14:11:43;4.15;;;1.75;;
61471;SDS011;47337;54.068;12.114;2023-03-14T14:14:29;9.95;;;1.85;;
61471;SDS011;47337;54.068;12.114;2023-03-14T14:16:59;6.72;;;1.35;;
61471;SDS011;47337;54.068;12.114;2023-03-14T14:19:29;5.38;;;1.35;;
61471;SDS011;47337;54.068;12.114;2023-03-14T14:21:57;8.00;;;1.50;;
61471;SDS011;47337;54.068;12.114;2023-03-14T14:24:24;12.52;;;1.75;;
61471;SDS011;47337;54.068;12.114;2023-03-14T14:27:00;5.57;;;1.30;;
61471;SDS011;47337;54.068;12.114;2023-03-14T14:29:40;9.20;;;1.52;;
61471;SDS011;47337;54.068;12.114;2023-03-14T14:34:45;9.57;;;1.73;;
61471;SDS011;47337;54.068;12.114;2023-03-14T14:37:21;9.65;;;1.25;;
61471;SDS011;47337;54.068;12.114;2023-03-14T14:39:48;15.88;;;1.88;;
61471;SDS011;47337;54.068;12.114;2023-03-14T14:42:20;5.32;;;1.25;;
61471;SDS011;47337;54.068;12.114;2023-03-14T14:44:49;13.15;;;1.33;;
61471;SDS011;47337;54.068;12.114;2023-03-14T14:47:25;6.75;;;1.40;;
61471;SDS011;47337;54.068;12.114;2023-03-14T14:49:55;6.75;;;1.30;;
61471;SDS011;47337;54.068;12.114;2023-03-14T14:52:36;9.55;;;1.50;;
61471;SDS011;47337;54.068;12.114;2023-03-14T14:55:40;5.32;;;1.60;;
61471;SDS011;47337;54.068;12.114;2023-03-14T14:58:12;17.08;;;2.20;;
61471;SDS011;47337;54.068;12.114;2023-03-14T15:00:50;6.85;;;1.25;;
61471;SDS011;47337;54.068;12.114;2023-03-14T15:03:21;7.47;;;1.77;;
61471;SDS011;47337;54.068;12.114;2023-03-14T15:05:46;7.75;;;1.38;;
61471;SDS011;47337;54.068;12.114;2023-03-14T15:08:12;14.32;;;2.13;;
61471;SDS011;47337;54.068;12.114;2023-03-14T15:10:40;6.55;;;1.90;;
61471;SDS011;47337;54.068;12.114;2023-03-14T15:13:08;11.93;;;1.55;;
61471;SDS011;47337;54.068;12.114;2023-03-14T15:15:33;8.05;;;1.67;;
61471;SDS011;47337;54.068;12.114;2023-03-14T15:17:59;10.38;;;1.70;;
61471;SDS011;47337;54.068;12.114;2023-03-14T15:20:27;13.48;;;1.42;;
61471;SDS011;47337;54.068;12.114;2023-03-14T15:22:53;7.15;;;1.98;;
61471;SDS011;47337;54.068;12.114;2023-03-14T15:25:18;13.00;;;2.20;;
61471;SDS011;47337;54.068;12.114;2023-03-14T15:27:43;10.85;;;1.80;;
61471;SDS011;47337;54.068;12.114;2023-03-14T15:30:12;7.43;;;1.67;;
61471;SDS011;47337;54.068;12.114;2023-03-14T15:32:42;6.43;;;1.30;;
61471;SDS011;47337;54.068;12.114;2023-03-14T15:35:08;13.52;;;1.75;;
61471;SDS011;47337;54.068;12.114;2023-03-14T15:37:35;6.90;;;1.45;;
61471;SDS011;47337;54.068;12.114;2023-03-14T15:40:02;11.63;;;1.98;;
61471;SDS011;47337;54.068;12.114;2023-03-14T15:42:35;9.02;;;2.10;;
61471;SDS011;47337;54.068;12.114;2023-03-14T15:45:00;6.75;;;1.30;;
61471;SDS011;47337;54.068;12.114;2023-03-14T15:47:25;9.48;;;1.70;;
61471;SDS011;47337;54.068;12.114;2023-03-14T15:49:55;4.72;;;1.27;;
61471;SDS011;47337;54.068;12.114;2023-03-14T15:52:20;6.38;;;0.98;;
61471;SDS011;47337;54.068;12.114;2023-03-14T15:54:48;11.38;;;2.08;;
61471;SDS011;47337;54.068;12.114;2023-03-14T15:57:13;10.32;;;2.05;;
61471;SDS011;47337;54.068;12.114;2023-03-14T15:59:41;3.78;;;1.08;;
61471;SDS011;47337;54.068;12.114;2023-03-14T16:02:08;11.70;;;1.85;;